createdAt,value
2023-03-29T00:01:00.344Z,97313.21
2023-03-29T00:03:29.011Z,97321.79
2023-03-29T00:06:03.923Z,97318.92
2023-03-29T00:08:34.195Z,97320.64
2023-03-29T00:11:02.325Z,97328.35
2023-03-29T00:13:30.861Z,97327.00
2023-03-29T00:15:59.020Z,97328.90
2023-03-29T00:18:27.009Z,97329.45
2023-03-29T00:20:59.415Z,97333.09
2023-03-29T00:23:27.761Z,97337.09
2023-03-29T00:25:55.941Z,97326.96
2023-03-29T00:28:24.644Z,97337.13
2023-03-29T00:30:52.861Z,97337.55
2023-03-29T00:33:21.710Z,97346.51
2023-03-29T00:35:53.457Z,97342.39
2023-03-29T00:38:22.053Z,97348.52
2023-03-29T00:40:50.132Z,97359.89
2023-03-29T00:43:18.921Z,97350.47
2023-03-29T00:45:47.415Z,97352.48
2023-03-29T00:48:21.720Z,97353.45
2023-03-29T00:50:52.971Z,97346.66
2023-03-29T00:53:27.786Z,97356.64
2023-03-29T00:56:05.414Z,97351.25
2023-03-29T00:58:47.181Z,97346.23
2023-03-29T01:01:17.833Z,97344.23
2023-03-29T01:03:54.575Z,97358.09
2023-03-29T01:06:24.992Z,97356.05
2023-03-29T01:09:04.667Z,97356.48
2023-03-29T01:11:39.905Z,97349.12
2023-03-29T01:14:12.204Z,97348.95
2023-03-29T01:16:40.517Z,97356.77
2023-03-29T01:19:12.842Z,97351.32
2023-03-29T01:21:57.696Z,97355.08
2023-03-29T01:24:26.082Z,97356.19
2023-03-29T01:27:01.092Z,97353.95
2023-03-29T01:29:40.352Z,97350.19
2023-03-29T01:32:17.434Z,97350.88
2023-03-29T01:34:45.281Z,97345.01
2023-03-29T01:37:36.494Z,97359.71
2023-03-29T01:40:07.849Z,97358.88
2023-03-29T01:42:54.856Z,97359.64
2023-03-29T01:45:22.732Z,97356.52
2023-03-29T01:48:06.922Z,97355.67
2023-03-29T01:50:41.090Z,97356.84
2023-03-29T01:53:18.224Z,97357.48
2023-03-29T01:55:52.594Z,97364.39
2023-03-29T01:58:22.807Z,97359.85
2023-03-29T02:00:54.268Z,97366.88
2023-03-29T02:03:26.660Z,97368.16
2023-03-29T02:05:57.815Z,97364.52
2023-03-29T02:08:29.753Z,97364.94
2023-03-29T02:10:58.654Z,97360.42
2023-03-29T02:13:27.543Z,97361.63
2023-03-29T02:15:56.773Z,97363.66
2023-03-29T02:18:24.926Z,97362.46
2023-03-29T02:20:53.814Z,97362.94
2023-03-29T02:23:24.670Z,97361.71
2023-03-29T02:25:57.120Z,97366.98
2023-03-29T02:28:27.366Z,97364.91
2023-03-29T02:30:58.016Z,97369.66
2023-03-29T02:33:42.341Z,97368.81
2023-03-29T02:36:15.004Z,97370.70
2023-03-29T02:38:43.970Z,97373.40
2023-03-29T02:41:13.224Z,97378.98
2023-03-29T02:43:42.422Z,97378.92
2023-03-29T02:46:11.031Z,97382.91
2023-03-29T02:48:39.944Z,97383.69
2023-03-29T02:51:20.262Z,97383.14
2023-03-29T02:53:52.135Z,97390.89
2023-03-29T02:56:20.608Z,97398.34
2023-03-29T02:58:48.613Z,97402.37
2023-03-29T03:01:18.039Z,97407.13
2023-03-29T03:03:46.731Z,97410.89
2023-03-29T03:06:15.482Z,97415.64
2023-03-29T03:08:43.383Z,97428.63
2023-03-29T03:11:11.322Z,97419.19
2023-03-29T03:13:39.192Z,97414.60
2023-03-29T03:16:09.586Z,97411.94
2023-03-29T03:18:38.114Z,97409.59
2023-03-29T03:21:06.800Z,97410.92
2023-03-29T03:23:34.780Z,97418.50
2023-03-29T03:26:03.352Z,97425.10
2023-03-29T03:28:32.462Z,97420.64
2023-03-29T03:31:01.222Z,97410.02
2023-03-29T03:33:48.364Z,97420.65
2023-03-29T03:36:37.743Z,97428.19
2023-03-29T03:39:07.218Z,97428.77
2023-03-29T03:41:36.013Z,97434.42
2023-03-29T03:44:04.509Z,97433.16
2023-03-29T03:46:33.098Z,97441.89
2023-03-29T03:49:01.375Z,97445.30
2023-03-29T03:51:33.752Z,97446.52
2023-03-29T03:54:02.144Z,97448.71
2023-03-29T03:56:34.283Z,97447.81
2023-03-29T03:59:08.317Z,97456.08
2023-03-29T04:02:02.396Z,97457.57
2023-03-29T04:04:31.138Z,97454.65
2023-03-29T04:07:13.294Z,97454.58
2023-03-29T04:09:57.509Z,97455.36
2023-03-29T04:12:46.672Z,97459.56
2023-03-29T04:15:14.624Z,97459.02
2023-03-29T04:17:48.437Z,97464.45
2023-03-29T04:20:29.942Z,97470.23
2023-03-29T04:22:58.113Z,97471.08
2023-03-29T04:25:26.905Z,97474.84
2023-03-29T04:28:01.221Z,97474.66
2023-03-29T04:30:42.040Z,97483.73
2023-03-29T04:33:15.589Z,97480.08
2023-03-29T04:35:47.058Z,97481.75
2023-03-29T04:38:16.818Z,97480.33
2023-03-29T04:40:46.269Z,97478.15
2023-03-29T04:43:25.191Z,97482.63
2023-03-29T04:46:02.398Z,97480.61
2023-03-29T04:48:56.758Z,97481.17
2023-03-29T04:51:34.252Z,97480.67
2023-03-29T04:54:02.540Z,97482.21
2023-03-29T04:56:31.234Z,97487.64
2023-03-29T04:59:37.304Z,97488.42
2023-03-29T05:02:14.584Z,97494.01
2023-03-29T05:04:44.177Z,97496.34
2023-03-29T05:07:15.706Z,97498.55
2023-03-29T05:09:43.793Z,97512.31
2023-03-29T05:12:12.286Z,97506.80
2023-03-29T05:14:58.876Z,97512.41
2023-03-29T05:17:27.702Z,97520.05
2023-03-29T05:20:01.376Z,97514.12
2023-03-29T05:22:29.855Z,97519.79
2023-03-29T05:24:59.450Z,97527.52
2023-03-29T05:27:29.889Z,97525.86
2023-03-29T05:30:05.333Z,97530.16
2023-03-29T05:33:01.743Z,97527.64
2023-03-29T05:35:30.768Z,97530.70
2023-03-29T05:38:00.475Z,97533.70
2023-03-29T05:40:29.689Z,97542.34
2023-03-29T05:43:18.115Z,97538.73
2023-03-29T05:45:46.319Z,97541.44
2023-03-29T05:48:14.676Z,97543.51
2023-03-29T05:50:46.945Z,97539.48
2023-03-29T05:53:15.308Z,97544.04
2023-03-29T05:55:44.134Z,97546.34
2023-03-29T05:58:14.558Z,97549.11
2023-03-29T06:00:43.854Z,97549.00
2023-03-29T06:03:35.053Z,97551.55
2023-03-29T06:06:04.378Z,97551.37
2023-03-29T06:08:34.026Z,97564.11
2023-03-29T06:11:16.089Z,97568.17
2023-03-29T06:14:07.788Z,97553.64
2023-03-29T06:16:42.207Z,97555.05
2023-03-29T06:19:11.518Z,97555.77
2023-03-29T06:21:41.343Z,97569.59
2023-03-29T06:24:09.713Z,97570.04
2023-03-29T06:26:42.267Z,97570.36
2023-03-29T06:29:10.470Z,97568.44
2023-03-29T06:31:40.982Z,97578.90
2023-03-29T06:34:10.508Z,97582.34
2023-03-29T06:37:11.148Z,97579.02
2023-03-29T06:39:39.186Z,97590.27
2023-03-29T06:42:25.509Z,97590.53
2023-03-29T06:45:29.463Z,97599.42
2023-03-29T06:47:58.016Z,97599.80
2023-03-29T06:50:26.426Z,97610.04
2023-03-29T06:53:03.041Z,97608.89
2023-03-29T06:55:32.138Z,97602.95
2023-03-29T06:58:04.420Z,97616.70
2023-03-29T07:00:35.745Z,97618.02
2023-03-29T07:03:13.527Z,97623.13
2023-03-29T07:05:42.268Z,97615.50
2023-03-29T07:08:15.237Z,97611.00
2023-03-29T07:11:03.734Z,97621.89
2023-03-29T07:13:33.117Z,97618.82
2023-03-29T07:16:04.169Z,97623.34
2023-03-29T07:18:51.317Z,97626.51
2023-03-29T07:21:48.690Z,97634.24
2023-03-29T07:24:16.843Z,97631.09
2023-03-29T07:27:00.289Z,97636.34
2023-03-29T07:29:31.452Z,97636.48
2023-03-29T07:32:00.441Z,97639.84
2023-03-29T07:34:43.855Z,97639.14
2023-03-29T07:37:19.102Z,97642.34
2023-03-29T07:39:47.480Z,97641.83
2023-03-29T07:42:38.994Z,97644.21
2023-03-29T07:45:11.555Z,97647.07
2023-03-29T07:47:50.024Z,97647.55
2023-03-29T07:50:18.259Z,97653.83
2023-03-29T07:52:46.324Z,97656.72
2023-03-29T07:55:15.981Z,97657.64
2023-03-29T07:58:03.660Z,97660.73
2023-03-29T08:00:34.273Z,97654.27
2023-03-29T08:03:17.345Z,97659.55
2023-03-29T08:05:45.459Z,97665.06
2023-03-29T08:08:16.444Z,97664.77
2023-03-29T08:10:53.424Z,97670.09
2023-03-29T08:13:33.367Z,97671.65
2023-03-29T08:16:19.928Z,97666.75
2023-03-29T08:18:54.287Z,97667.96
2023-03-29T08:21:22.984Z,97673.51
2023-03-29T08:23:51.361Z,97667.46
2023-03-29T08:26:30.180Z,97671.43
2023-03-29T08:28:59.375Z,97667.91
2023-03-29T08:31:28.652Z,97671.50
2023-03-29T08:33:56.970Z,97676.96
2023-03-29T08:36:45.098Z,97679.23
2023-03-29T08:39:20.751Z,97691.00
2023-03-29T08:41:57.526Z,97683.26
2023-03-29T08:44:32.263Z,97673.48
2023-03-29T08:47:04.678Z,97673.52
2023-03-29T08:49:38.742Z,97674.44
2023-03-29T08:52:19.702Z,97678.39
2023-03-29T08:54:51.893Z,97679.77
2023-03-29T08:57:25.861Z,97674.31
2023-03-29T09:00:02.029Z,97677.52
2023-03-29T09:02:34.217Z,97682.20
2023-03-29T09:05:23.942Z,97690.81
2023-03-29T09:08:27.797Z,97699.60
2023-03-29T09:10:56.113Z,97701.46
2023-03-29T09:13:30.639Z,97688.29
2023-03-29T09:16:05.857Z,97688.69
2023-03-29T09:18:52.661Z,97691.61
2023-03-29T09:21:30.025Z,97696.05
2023-03-29T09:24:10.476Z,97700.98
2023-03-29T09:27:16.214Z,97694.68
2023-03-29T09:29:58.517Z,97693.95
2023-03-29T09:32:45.901Z,97695.09
2023-03-29T09:35:19.732Z,97694.36
2023-03-29T09:37:49.241Z,97698.31
2023-03-29T09:40:38.391Z,97694.73
2023-03-29T09:43:13.947Z,97688.88
2023-03-29T09:45:42.510Z,97680.65
2023-03-29T09:48:15.017Z,97685.33
2023-03-29T09:50:47.914Z,97698.86
2023-03-29T09:53:16.379Z,97689.27
2023-03-29T09:55:51.315Z,97695.00
2023-03-29T09:58:28.089Z,97691.20
2023-03-29T10:01:00.016Z,97692.19
2023-03-29T10:03:29.676Z,97688.59
2023-03-29T10:06:05.305Z,97692.79
2023-03-29T10:08:47.870Z,97684.91
2023-03-29T10:11:51.522Z,97675.27
2023-03-29T10:14:22.689Z,97674.45
2023-03-29T10:16:55.498Z,97676.52
2023-03-29T10:19:27.223Z,97677.75
2023-03-29T10:21:56.177Z,97684.30
2023-03-29T10:24:24.990Z,97674.89
2023-03-29T10:26:57.166Z,97687.93
2023-03-29T10:29:25.999Z,97683.57
2023-03-29T10:31:54.123Z,97684.86
2023-03-29T10:34:26.036Z,97671.33
2023-03-29T10:37:01.510Z,97672.77
2023-03-29T10:39:32.881Z,97677.77
2023-03-29T10:42:03.336Z,97659.96
2023-03-29T10:44:33.367Z,97650.64
2023-03-29T10:47:08.067Z,97664.09
2023-03-29T10:49:43.423Z,97690.34
2023-03-29T10:52:13.533Z,97671.38
2023-03-29T10:54:41.722Z,97663.95
2023-03-29T10:57:12.614Z,97647.67
2023-03-29T10:59:40.832Z,97648.89
2023-03-29T11:02:14.801Z,97657.42
2023-03-29T11:04:49.079Z,97659.69
2023-03-29T11:07:23.383Z,97664.42
2023-03-29T11:10:09.875Z,97652.31
2023-03-29T11:13:08.652Z,97652.96
2023-03-29T11:15:45.694Z,97638.77
2023-03-29T11:18:32.329Z,97650.67
2023-03-29T11:21:05.584Z,97642.60
2023-03-29T11:24:15.973Z,97636.87
2023-03-29T11:26:43.930Z,97636.58
2023-03-29T11:29:18.972Z,97634.10
2023-03-29T11:32:05.667Z,97632.84
2023-03-29T11:35:12.746Z,97630.37
2023-03-29T11:37:40.827Z,97629.70
2023-03-29T11:40:27.440Z,97618.77
2023-03-29T11:42:57.330Z,97622.52
2023-03-29T11:45:47.095Z,97624.38
2023-03-29T11:48:24.407Z,97608.52
2023-03-29T11:50:59.020Z,97612.80
2023-03-29T11:53:44.900Z,97601.52
2023-03-29T11:56:16.377Z,97601.73
2023-03-29T11:58:48.731Z,97589.86
2023-03-29T12:01:22.112Z,97584.92
2023-03-29T12:03:53.266Z,97593.10
2023-03-29T12:06:28.375Z,97592.09
2023-03-29T12:09:01.411Z,97595.43
2023-03-29T12:11:35.004Z,97591.84
2023-03-29T12:14:03.682Z,97591.27
2023-03-29T12:16:39.981Z,97591.41
2023-03-29T12:19:30.535Z,97585.11
2023-03-29T12:21:59.422Z,97581.73
2023-03-29T12:24:32.012Z,97588.93
2023-03-29T12:27:12.566Z,97579.11
2023-03-29T12:29:40.750Z,97588.65
2023-03-29T12:32:21.923Z,97577.85
2023-03-29T12:35:05.258Z,97578.61
2023-03-29T12:38:02.180Z,97582.73
2023-03-29T12:41:05.439Z,97577.37
2023-03-29T12:43:52.597Z,97573.91
2023-03-29T12:46:36.892Z,97572.21
2023-03-29T12:49:10.522Z,97573.59
2023-03-29T12:51:41.778Z,97564.83
2023-03-29T12:54:18.048Z,97571.61
2023-03-29T12:56:52.216Z,97561.85
2023-03-29T12:59:22.992Z,97559.65
2023-03-29T13:01:59.326Z,97563.72
2023-03-29T13:04:36.546Z,97561.13
2023-03-29T13:07:06.016Z,97558.33
2023-03-29T13:09:36.782Z,97563.25
2023-03-29T13:12:04.761Z,97555.89
2023-03-29T13:14:34.572Z,97556.16
2023-03-29T13:17:17.781Z,97555.95
2023-03-29T13:19:46.399Z,97554.36
2023-03-29T13:22:17.431Z,97573.94
2023-03-29T13:24:51.343Z,97569.23
2023-03-29T13:27:22.365Z,97555.54
2023-03-29T13:29:53.529Z,97562.39
2023-03-29T13:32:21.723Z,97560.31
2023-03-29T13:35:08.410Z,97555.01
2023-03-29T13:37:39.345Z,97565.00
2023-03-29T13:40:26.761Z,97564.45
2023-03-29T13:42:57.610Z,97578.61
2023-03-29T13:45:27.642Z,97573.17
2023-03-29T13:48:05.523Z,97565.19
2023-03-29T13:50:52.568Z,97568.70
2023-03-29T13:53:41.108Z,97568.98
2023-03-29T13:56:11.129Z,97570.08
2023-03-29T13:58:43.676Z,97563.71
2023-03-29T14:01:14.987Z,97558.71
2023-03-29T14:03:48.736Z,97565.35
2023-03-29T14:06:19.059Z,97563.45
2023-03-29T14:08:49.553Z,97562.48
2023-03-29T14:11:25.556Z,97577.86
2023-03-29T14:13:58.022Z,97559.85
2023-03-29T14:16:31.702Z,97556.33
2023-03-29T14:19:02.880Z,97556.35
2023-03-29T14:21:30.735Z,97553.45
2023-03-29T14:24:00.664Z,97561.45
2023-03-29T14:26:32.631Z,97565.06
2023-03-29T14:29:01.650Z,97568.08
2023-03-29T14:31:31.494Z,97572.09
2023-03-29T14:34:00.566Z,97564.96
2023-03-29T14:36:29.749Z,97578.41
2023-03-29T14:39:01.719Z,97570.83
2023-03-29T14:41:31.118Z,97565.30
2023-03-29T14:44:00.248Z,97574.55
2023-03-29T14:46:28.458Z,97566.85
2023-03-29T14:48:56.542Z,97565.10
2023-03-29T14:51:30.530Z,97566.38
2023-03-29T14:54:00.500Z,97558.02
2023-03-29T14:56:29.395Z,97563.50
2023-03-29T14:58:57.384Z,97568.45
2023-03-29T15:01:26.026Z,97571.60
2023-03-29T15:03:55.098Z,97565.30
2023-03-29T15:06:24.572Z,97565.13
2023-03-29T15:09:04.401Z,97559.37
2023-03-29T15:11:34.810Z,97565.55
2023-03-29T15:14:13.983Z,97560.98
2023-03-29T15:16:43.814Z,97559.92
2023-03-29T15:19:15.351Z,97566.59
2023-03-29T15:21:44.013Z,97567.52
2023-03-29T15:24:20.818Z,97566.92
2023-03-29T15:26:58.098Z,97564.94
2023-03-29T15:29:34.092Z,97563.09
2023-03-29T15:32:02.330Z,97556.61
2023-03-29T15:34:31.444Z,97560.60
2023-03-29T15:36:59.972Z,97560.31
2023-03-29T15:39:29.564Z,97561.69
2023-03-29T15:41:57.818Z,97562.17
2023-03-29T15:44:32.130Z,97565.11
2023-03-29T15:47:00.514Z,97564.89
2023-03-29T15:49:28.704Z,97568.45
2023-03-29T15:51:56.781Z,97572.39
2023-03-29T15:54:24.983Z,97566.04
2023-03-29T15:56:55.455Z,97571.00
2023-03-29T15:59:23.666Z,97570.02
2023-03-29T16:01:51.991Z,97565.60
2023-03-29T16:04:21.168Z,97565.85
2023-03-29T16:06:50.646Z,97568.03
2023-03-29T16:09:19.259Z,97567.78
2023-03-29T16:11:47.926Z,97563.70
2023-03-29T16:14:18.573Z,97561.59
2023-03-29T16:16:47.315Z,97565.22
2023-03-29T16:19:15.753Z,97567.64
2023-03-29T16:21:45.052Z,97564.86
2023-03-29T16:24:18.039Z,97568.27
2023-03-29T16:26:46.628Z,97573.36
2023-03-29T16:29:17.324Z,97572.58
2023-03-29T16:31:46.643Z,97572.67
2023-03-29T16:34:16.282Z,97572.63
2023-03-29T16:36:44.461Z,97574.79
2023-03-29T16:39:13.868Z,97581.58
2023-03-29T16:41:42.655Z,97584.33
2023-03-29T16:44:16.051Z,97589.35
2023-03-29T16:46:44.850Z,97585.80
2023-03-29T16:49:18.194Z,97584.52
2023-03-29T16:51:47.454Z,97581.17
2023-03-29T16:54:17.150Z,97583.19
2023-03-29T16:56:45.250Z,97580.73
2023-03-29T16:59:13.410Z,97583.39
2023-03-29T17:01:41.695Z,97588.61
2023-03-29T17:04:09.891Z,97585.64
2023-03-29T17:06:38.169Z,97586.58
2023-03-29T17:09:06.340Z,97586.87
2023-03-29T17:11:34.877Z,97586.52
2023-03-29T17:14:03.286Z,97588.30
2023-03-29T17:16:31.445Z,97591.44
2023-03-29T17:19:02.626Z,97588.52
2023-03-29T17:21:30.893Z,97590.41
2023-03-29T17:23:58.776Z,97591.23
2023-03-29T17:26:26.851Z,97594.75
2023-03-29T17:28:54.927Z,97597.58
2023-03-29T17:31:22.926Z,97595.38
2023-03-29T17:33:52.319Z,97596.77
2023-03-29T17:36:24.242Z,97599.73
2023-03-29T17:38:52.474Z,97602.69
2023-03-29T17:41:23.539Z,97612.21
2023-03-29T17:43:52.011Z,97613.70
2023-03-29T17:46:23.018Z,97619.77
2023-03-29T17:48:51.408Z,97625.66
2023-03-29T17:51:20.200Z,97622.53
2023-03-29T17:53:48.182Z,97625.20
2023-03-29T17:56:16.559Z,97624.59
2023-03-29T17:58:44.436Z,97625.33
2023-03-29T18:01:13.615Z,97629.48
2023-03-29T18:03:42.233Z,97631.73
2023-03-29T18:06:10.217Z,97633.27
2023-03-29T18:08:38.384Z,97632.15
2023-03-29T18:11:07.722Z,97639.08
2023-03-29T18:13:35.673Z,97641.05
2023-03-29T18:16:04.667Z,97641.66
2023-03-29T18:18:33.863Z,97645.79
2023-03-29T18:21:02.037Z,97644.48
2023-03-29T18:23:30.119Z,97644.53
2023-03-29T18:25:59.315Z,97643.98
2023-03-29T18:28:27.397Z,97653.78
2023-03-29T18:30:55.677Z,97652.64
2023-03-29T18:33:24.154Z,97656.49
2023-03-29T18:35:55.885Z,97657.97
2023-03-29T18:38:24.203Z,97658.42
2023-03-29T18:40:52.282Z,97664.38
2023-03-29T18:43:20.866Z,97663.35
2023-03-29T18:45:48.870Z,97665.70
2023-03-29T18:48:16.842Z,97669.84
2023-03-29T18:50:47.702Z,97669.33
2023-03-29T18:53:17.472Z,97671.68
2023-03-29T18:55:45.750Z,97676.45
2023-03-29T18:58:14.657Z,97677.95
2023-03-29T19:00:43.596Z,97678.43
2023-03-29T19:03:11.858Z,97677.84
2023-03-29T19:05:40.101Z,97681.88
2023-03-29T19:08:09.185Z,97678.46
2023-03-29T19:10:37.995Z,97682.09
2023-03-29T19:13:06.175Z,97682.94
2023-03-29T19:15:34.922Z,97682.22
2023-03-29T19:18:02.989Z,97683.39
2023-03-29T19:20:31.354Z,97683.66
2023-03-29T19:22:59.301Z,97682.21
2023-03-29T19:25:27.886Z,97681.80
2023-03-29T19:27:55.858Z,97684.78
2023-03-29T19:30:23.847Z,97680.46
2023-03-29T19:32:52.368Z,97679.42
2023-03-29T19:35:20.451Z,97686.52
2023-03-29T19:37:48.580Z,97683.90
2023-03-29T19:40:17.270Z,97687.09
2023-03-29T19:42:45.232Z,97689.73
2023-03-29T19:45:13.214Z,97693.23
2023-03-29T19:47:44.088Z,97696.58
2023-03-29T19:50:12.424Z,97698.41
2023-03-29T19:52:41.379Z,97700.45
2023-03-29T19:55:10.644Z,97699.33
2023-03-29T19:57:38.515Z,97700.83
2023-03-29T20:00:14.192Z,97698.38
2023-03-29T20:02:42.709Z,97699.34
2023-03-29T20:05:10.710Z,97700.28
2023-03-29T20:07:38.586Z,97708.59
2023-03-29T20:10:06.672Z,97705.80
2023-03-29T20:12:34.942Z,97708.48
2023-03-29T20:15:03.630Z,97706.70
2023-03-29T20:17:32.042Z,97705.27
2023-03-29T20:20:00.913Z,97705.23
2023-03-29T20:22:31.238Z,97707.09
2023-03-29T20:24:59.234Z,97705.58
2023-03-29T20:27:29.456Z,97709.85
2023-03-29T20:29:57.508Z,97709.84
2023-03-29T20:32:25.830Z,97711.38
2023-03-29T20:34:54.600Z,97708.64
2023-03-29T20:37:23.208Z,97704.50
2023-03-29T20:39:51.728Z,97706.48
2023-03-29T20:42:24.629Z,97711.52
2023-03-29T20:44:54.052Z,97703.26
2023-03-29T20:47:23.628Z,97699.06
2023-03-29T20:49:54.298Z,97697.47
2023-03-29T20:52:22.901Z,97695.69
2023-03-29T20:54:50.864Z,97691.91
2023-03-29T20:57:20.951Z,97689.48
2023-03-29T20:59:49.474Z,97688.61
2023-03-29T21:02:19.258Z,97683.73
2023-03-29T21:04:52.118Z,97683.33
2023-03-29T21:07:21.496Z,97681.52
2023-03-29T21:09:50.441Z,97681.09
2023-03-29T21:12:20.350Z,97680.16
2023-03-29T21:14:48.368Z,97680.23
2023-03-29T21:17:16.245Z,97676.04
2023-03-29T21:19:44.426Z,97678.16
2023-03-29T21:22:15.388Z,97675.48
2023-03-29T21:24:43.337Z,97676.58
2023-03-29T21:27:11.823Z,97676.48
2023-03-29T21:29:39.763Z,97678.96
2023-03-29T21:32:08.086Z,97680.39
2023-03-29T21:34:36.255Z,97681.70
2023-03-29T21:37:04.328Z,97683.33
2023-03-29T21:39:32.353Z,97676.75
2023-03-29T21:42:00.506Z,97681.25
2023-03-29T21:44:28.397Z,97680.31
2023-03-29T21:46:56.570Z,97684.23
2023-03-29T21:49:24.602Z,97681.59
2023-03-29T21:51:52.697Z,97681.04
2023-03-29T21:54:20.882Z,97678.73
2023-03-29T21:56:48.830Z,97682.63
2023-03-29T21:59:16.925Z,97685.81
2023-03-29T22:01:44.911Z,97686.00
2023-03-29T22:04:17.688Z,97689.04
2023-03-29T22:06:54.246Z,97692.23
2023-03-29T22:09:22.224Z,97691.86
2023-03-29T22:11:50.397Z,97689.50
2023-03-29T22:14:19.504Z,97693.85
2023-03-29T22:16:47.728Z,97691.64
2023-03-29T22:19:15.763Z,97691.93
2023-03-29T22:21:44.330Z,97693.69
2023-03-29T22:24:12.172Z,97697.00
2023-03-29T22:26:41.214Z,97698.43
2023-03-29T22:29:09.530Z,97698.28
2023-03-29T22:31:39.632Z,97698.29
2023-03-29T22:34:07.785Z,97698.64
2023-03-29T22:36:36.995Z,97697.99
2023-03-29T22:39:05.914Z,97696.20
2023-03-29T22:41:33.824Z,97691.80
2023-03-29T22:44:01.828Z,97695.55
2023-03-29T22:46:30.143Z,97698.67
2023-03-29T22:48:58.502Z,97700.90
2023-03-29T22:51:27.467Z,97701.89
2023-03-29T22:53:55.771Z,97698.13
2023-03-29T22:56:24.893Z,97698.46
2023-03-29T22:58:52.862Z,97697.14
2023-03-29T23:01:20.662Z,97695.09
2023-03-29T23:03:48.570Z,97694.95
2023-03-29T23:06:16.781Z,97695.66
2023-03-29T23:08:44.846Z,97695.73
2023-03-29T23:11:12.925Z,97691.89
2023-03-29T23:13:41.100Z,97696.20
2023-03-29T23:16:09.207Z,97695.73
2023-03-29T23:18:37.936Z,97698.00
2023-03-29T23:21:06.877Z,97701.79
2023-03-29T23:23:35.452Z,97703.50
2023-03-29T23:26:04.134Z,97698.26
2023-03-29T23:28:34.781Z,97699.16
2023-03-29T23:31:10.577Z,97702.92
2023-03-29T23:33:41.232Z,97707.17
2023-03-29T23:36:11.131Z,97710.94
2023-03-29T23:38:39.984Z,97711.29
2023-03-29T23:41:10.469Z,97715.08
2023-03-29T23:43:40.650Z,97714.61
2023-03-29T23:46:08.739Z,97710.20
2023-03-29T23:48:36.677Z,97706.14
2023-03-29T23:51:05.221Z,97704.43
2023-03-29T23:53:33.555Z,97706.00
2023-03-29T23:56:02.654Z,97710.48
2023-03-29T23:58:32.420Z,97714.57
